Time;durP1;ratioP1;P1;durP2;ratioP2;P2;SDS_P1;SDS_P2;PMS_P1;PMS_P2;Temp;Humidity;BMP_temperature;BMP_pressure;BME280_temperature;BME280_humidity;BME280_pressure;Samples;Min_cycle;Max_cycle;Signal;HPM_P1;HPM_P2
2021/01/06 00:02:04;;;;;;;7.27;1.90;;;;;;;5.01;100.00;102023.41;1806032;79;26232;-75
2021/01/06 00:04:34;;;;;;;4.43;2.00;;;;;;;4.92;100.00;102022.00;1806014;79;26235;-74
2021/01/06 00:07:04;;;;;;;4.90;1.90;;;;;;;4.96;100.00;102028.76;1806008;79;26224;-74
2021/01/06 00:09:34;;;;;;;5.70;2.23;;;;;;;4.90;100.00;102024.97;1805982;79;26336;-74
2021/01/06 00:12:07;;;;;;;8.43;2.10;;;;;;;4.94;100.00;102028.97;1806011;79;26716;-74
2021/01/06 00:14:37;;;;;;;6.70;2.70;;;;;;;5.01;100.00;102031.67;1805854;79;26247;-74
2021/01/06 00:17:07;;;;;;;4.93;2.40;;;;;;;4.96;100.00;102029.58;1806012;79;26322;-74
2021/01/06 00:19:37;;;;;;;5.53;2.17;;;;;;;4.98;100.00;102029.37;1805962;79;26391;-74
2021/01/06 00:22:07;;;;;;;6.03;2.13;;;;;;;4.95;100.00;102028.44;1806052;79;26239;-74
2021/01/06 00:24:37;;;;;;;5.30;2.00;;;;;;;4.98;100.00;102029.37;1805939;77;26323;-74
2021/01/06 00:27:07;;;;;;;5.07;2.30;;;;;;;4.97;100.00;102029.05;1806053;79;26671;-74
2021/01/06 00:29:37;;;;;;;4.17;2.37;;;;;;;4.95;100.00;102032.04;1806070;79;26306;-74
2021/01/06 00:32:07;;;;;;;5.00;2.67;;;;;;;4.97;100.00;102029.05;1806124;79;26232;-74
2021/01/06 00:34:37;;;;;;;5.80;1.90;;;;;;;5.03;100.00;102031.78;1805974;79;26252;-74
2021/01/06 00:37:07;;;;;;;5.57;1.90;;;;;;;5.06;100.00;102030.48;1806304;79;26411;-75
2021/01/06 00:39:37;;;;;;;3.90;2.10;;;;;;;5.03;100.00;102030.94;1806055;79;26240;-76
2021/01/06 00:42:07;;;;;;;4.77;2.20;;;;;;;5.01;100.00;102033.05;1806005;79;26306;-75
2021/01/06 00:44:37;;;;;;;2.70;1.77;;;;;;;4.97;100.00;102030.42;1806017;79;26228;-75
2021/01/06 00:47:07;;;;;;;4.63;2.20;;;;;;;4.99;100.00;102033.29;1806072;79;26310;-75
2021/01/06 00:49:37;;;;;;;4.20;2.07;;;;;;;4.99;100.00;102034.66;1805969;79;26659;-74
2021/01/06 00:52:07;;;;;;;6.50;2.77;;;;;;;4.97;100.00;102035.93;1806019;79;26359;-74
2021/01/06 00:54:38;;;;;;;4.77;2.00;;;;;;;4.97;100.00;102034.55;1805963;79;26239;-75
2021/01/06 00:57:08;;;;;;;3.80;2.27;;;;;;;4.93;100.00;102033.30;1805998;79;26228;-74
2021/01/06 00:59:38;;;;;;;5.37;2.00;;;;;;;4.99;100.00;102025.56;1805974;79;26673;-74
2021/01/06 01:02:08;;;;;;;5.37;2.10;;;;;;;4.97;100.00;102031.80;1805993;79;26232;-74
2021/01/06 01:04:38;;;;;;;4.50;2.40;;;;;;;4.93;100.00;102031.40;1805984;79;26298;-74
2021/01/06 01:07:08;;;;;;;3.87;2.10;;;;;;;4.92;100.00;102035.20;1805981;79;26824;-75
2021/01/06 01:09:38;;;;;;;2.90;2.07;;;;;;;4.91;100.00;102034.92;1806011;79;26224;-75
2021/01/06 01:12:09;;;;;;;4.47;2.00;;;;;;;4.85;100.00;102034.41;1805973;79;26228;-75
2021/01/06 01:14:38;;;;;;;5.83;2.10;;;;;;;4.74;100.00;102037.85;1805945;79;26336;-75
2021/01/06 01:17:09;;;;;;;3.70;2.10;;;;;;;4.79;100.00;102036.64;1805914;79;26235;-75
2021/01/06 01:19:39;;;;;;;5.03;2.00;;;;;;;4.69;100.00;102035.43;1805863;79;26224;-74
2021/01/06 01:22:09;;;;;;;6.10;2.33;;;;;;;4.71;100.00;102038.80;1805979;79;26683;-74
2021/01/06 01:24:39;;;;;;;6.43;2.20;;;;;;;4.75;100.00;102040.90;1805890;77;26264;-74
2021/01/06 01:27:09;;;;;;;3.50;2.03;;;;;;;4.76;100.00;102034.86;1805876;79;26228;-74
2021/01/06 01:29:39;;;;;;;7.27;2.87;;;;;;;4.76;100.00;102033.48;1805854;79;26761;-75
2021/01/06 01:32:09;;;;;;;4.77;2.13;;;;;;;4.65;100.00;102036.93;1805858;79;26715;-74
2021/01/06 01:34:39;;;;;;;7.23;2.57;;;;;;;4.68;100.00;102039.23;1805846;79;26770;-75
2021/01/06 01:37:09;;;;;;;5.80;2.00;;;;;;;4.62;100.00;102036.00;1805954;79;26228;-74
2021/01/06 01:39:39;;;;;;;7.57;2.00;;;;;;;4.68;100.00;102041.46;1805819;79;26235;-75
2021/01/06 01:42:09;;;;;;;6.77;2.43;;;;;;;4.79;100.00;102035.83;1805933;79;26244;-74
2021/01/06 01:45:00;;;;;;;4.17;2.10;;;;;;;4.77;100.00;102040.16;1805924;79;26313;-75
2021/01/06 01:47:44;;;;;;;7.07;1.93;;;;;;;4.86;100.00;102040.77;1805954;79;26314;-73
2021/01/06 01:50:13;;;;;;;3.23;1.67;;;;;;;4.80;100.00;102037.49;1805615;79;26225;-73
2021/01/06 01:52:47;;;;;;;4.97;2.33;;;;;;;4.80;100.00;102036.12;1806010;79;26227;-73
2021/01/06 01:55:20;;;;;;;7.00;2.10;;;;;;;4.71;100.00;102038.80;1805948;79;26318;-73
2021/01/06 01:57:53;;;;;;;6.97;2.33;;;;;;;4.68;100.00;102040.61;1805961;79;26452;-73
2021/01/06 02:00:27;;;;;;;5.70;2.43;;;;;;;4.69;100.00;102038.19;1806018;79;26699;-74
2021/01/06 02:03:02;;;;;;;7.00;2.20;;;;;;;4.61;100.00;102039.80;1805902;79;26213;-73
2021/01/06 02:05:36;;;;;;;5.33;1.90;;;;;;;4.70;100.00;102038.51;1804075;79;26380;-73
2021/01/06 02:08:12;;;;;;;5.60;1.90;;;;;;;4.76;100.00;102041.74;1805856;79;26231;-72
2021/01/06 02:10:46;;;;;;;6.10;1.87;;;;;;;4.87;100.00;102032.30;1805882;79;26754;-73
2021/01/06 02:13:20;;;;;;;8.17;2.33;;;;;;;4.86;100.00;102029.75;1805940;79;26731;-74
2021/01/06 02:15:53;;;;;;;6.97;1.97;;;;;;;4.89;100.00;102042.54;1805956;79;26320;-73
2021/01/06 02:18:23;;;;;;;7.67;2.23;;;;;;;4.89;100.00;102037.56;1805799;79;26679;-73
2021/01/06 02:21:08;;;;;;;3.13;2.00;;;;;;;4.89;100.00;102034.28;1805945;79;26228;-73
2021/01/06 02:23:40;;;;;;;6.57;2.00;;;;;;;5.00;100.00;102032.23;1805873;78;26271;-73
2021/01/06 02:26:11;;;;;;;5.50;1.70;;;;;;;5.04;100.00;102040.36;1805864;79;26272;-74
2021/01/06 02:28:41;;;;;;;3.50;1.97;;;;;;;5.07;100.00;102032.72;1805922;79;26236;-73
2021/01/06 02:31:11;;;;;;;4.63;1.83;;;;;;;5.00;100.00;102029.48;1805925;79;26287;-73
2021/01/06 02:33:42;;;;;;;7.07;1.90;;;;;;;5.02;100.00;102027.86;1805959;79;26231;-73
2021/01/06 02:36:12;;;;;;;6.20;1.90;;;;;;;5.00;100.00;102026.73;1805869;79;26310;-73
2021/01/06 02:38:43;;;;;;;6.20;2.10;;;;;;;4.96;100.00;102028.20;1805980;79;26232;-72
2021/01/06 02:41:14;;;;;;;5.47;1.90;;;;;;;5.03;100.00;102025.43;1805912;79;26286;-73
2021/01/06 02:43:45;;;;;;;4.93;1.73;;;;;;;5.10;100.00;102028.12;1805928;79;26286;-73
2021/01/06 02:46:15;;;;;;;6.00;1.37;;;;;;;4.99;100.00;102027.78;1806012;79;26823;-73
2021/01/06 02:48:47;;;;;;;7.33;2.30;;;;;;;5.02;100.00;102029.23;1805948;79;26220;-73
2021/01/06 02:51:20;;;;;;;4.73;1.70;;;;;;;5.01;100.00;102024.79;1805933;79;26298;-73
2021/01/06 02:53:54;;;;;;;5.40;2.00;;;;;;;4.98;100.00;102025.23;1805794;79;26297;-74
2021/01/06 02:56:24;;;;;;;9.70;2.37;;;;;;;5.09;100.00;102025.94;1805780;79;26227;-74
2021/01/06 02:58:55;;;;;;;4.37;1.60;;;;;;;5.10;100.00;102028.98;1805929;79;26247;-73
2021/01/06 03:01:27;;;;;;;5.97;1.70;;;;;;;5.10;100.00;102024.00;1805920;79;26800;-73
2021/01/06 03:03:58;;;;;;;3.80;1.50;;;;;;;5.11;100.00;102028.45;1805879;79;26750;-74
2021/01/06 03:06:31;;;;;;;6.30;1.60;;;;;;;5.08;100.00;102024.23;1805883;79;26302;-74
2021/01/06 03:09:02;;;;;;;3.90;1.50;;;;;;;5.12;100.00;102028.24;1805874;79;26236;-74
2021/01/06 03:11:32;;;;;;;1.63;1.47;;;;;;;5.14;100.00;102028.00;1805895;79;26302;-74
2021/01/06 03:14:02;;;;;;;3.80;1.80;;;;;;;5.07;100.00;102018.94;1805923;79;26229;-74
2021/01/06 03:16:32;;;;;;;3.27;1.87;;;;;;;5.07;100.00;102020.32;1805843;79;26789;-73
2021/01/06 03:19:02;;;;;;;2.37;1.70;;;;;;;5.03;100.00;102018.02;1805929;79;26236;-74
2021/01/06 03:21:32;;;;;;;5.60;2.17;;;;;;;5.09;100.00;102010.79;1805971;79;26245;-73
2021/01/06 03:24:04;;;;;;;3.93;1.80;;;;;;;5.14;100.00;102012.85;1805865;78;26772;-74
2021/01/06 03:26:35;;;;;;;5.07;1.63;;;;;;;5.17;100.00;102013.81;1805829;77;26378;-73
2021/01/06 03:29:06;;;;;;;1.73;1.43;;;;;;;5.10;100.00;102007.48;1805838;79;26221;-74
2021/01/06 03:31:40;;;;;;;4.67;1.97;;;;;;;5.15;100.00;102007.13;1805851;79;26239;-74
2021/01/06 03:34:13;;;;;;;3.50;1.57;;;;;;;5.05;100.00;101999.87;1805875;79;26240;-73
2021/01/06 03:36:46;;;;;;;4.83;1.80;;;;;;;5.08;100.00;101998.61;1805329;79;26683;-73
2021/01/06 03:39:20;;;;;;;3.20;1.67;;;;;;;5.04;100.00;102004.56;1805818;79;26228;-74
2021/01/06 03:41:50;;;;;;;3.53;1.87;;;;;;;5.10;100.00;101994.55;1805822;79;26328;-74
2021/01/06 03:44:20;;;;;;;4.07;1.97;;;;;;;5.04;100.00;101996.83;1805878;79;26232;-73
2021/01/06 03:46:57;;;;;;;3.50;2.00;;;;;;;5.11;100.00;102000.91;1805877;79;26404;-73
2021/01/06 03:49:42;;;;;;;3.80;2.00;;;;;;;5.00;100.00;101997.81;1806056;79;26259;-73
2021/01/06 03:52:16;;;;;;;3.37;2.20;;;;;;;4.96;100.00;101995.16;1805932;79;26236;-74
2021/01/06 03:54:51;;;;;;;3.37;1.97;;;;;;;5.02;100.00;102003.08;1806178;79;26639;-73
2021/01/06 03:57:23;;;;;;;4.20;1.70;;;;;;;5.07;100.00;101999.14;1806056;79;27190;-74
2021/01/06 03:59:55;;;;;;;2.70;1.70;;;;;;;5.02;100.00;101994.81;1806005;79;26737;-74
2021/01/06 04:02:28;;;;;;;3.00;1.60;;;;;;;4.99;100.00;101995.27;1806115;79;26333;-73
2021/01/06 04:05:02;;;;;;;5.27;1.73;;;;;;;5.00;100.00;101996.97;1806107;79;26364;-74
2021/01/06 04:07:35;;;;;;;3.03;1.50;;;;;;;5.04;100.00;101997.68;1806224;79;26298;-73
2021/01/06 04:10:09;;;;;;;2.57;1.50;;;;;;;5.11;100.00;101997.62;1806106;79;26232;-74
2021/01/06 04:12:40;;;;;;;3.17;1.93;;;;;;;5.07;100.00;101994.16;1806093;79;26311;-74
2021/01/06 04:15:13;;;;;;;3.07;1.80;;;;;;;5.07;100.00;101993.63;1806301;79;26244;-73
2021/01/06 04:17:45;;;;;;;5.83;1.90;;;;;;;5.01;100.00;101995.87;1806172;79;26247;-73
2021/01/06 04:20:28;;;;;;;3.53;1.87;;;;;;;5.04;100.00;101996.30;1806103;79;26228;-74
2021/01/06 04:23:00;;;;;;;4.53;2.40;;;;;;;5.09;100.00;101997.55;1806207;78;26252;-73
2021/01/06 04:25:32;;;;;;;2.30;1.60;;;;;;;5.07;100.00;101984.52;1805992;79;26239;-74
2021/01/06 04:28:05;;;;;;;4.53;2.00;;;;;;;5.05;100.00;101981.97;1802670;79;26318;-74
2021/01/06 04:30:37;;;;;;;3.73;1.97;;;;;;;5.00;100.00;101980.45;1813631;79;26235;-73
2021/01/06 04:33:10;;;;;;;8.20;2.77;;;;;;;4.99;100.00;101981.50;1814152;79;26665;-73
2021/01/06 04:35:40;;;;;;;4.63;2.20;;;;;;;5.09;100.00;101985.16;1814143;79;26232;-74
2021/01/06 04:38:14;;;;;;;5.00;2.47;;;;;;;5.12;100.00;101983.33;1814185;79;26251;-74
2021/01/06 04:40:47;;;;;;;2.87;1.90;;;;;;;5.19;100.00;101979.45;1814227;79;26234;-73
2021/01/06 04:43:23;;;;;;;3.50;2.13;;;;;;;5.07;100.00;101979.86;1815012;79;26808;-73
2021/01/06 04:46:04;;;;;;;4.53;2.50;;;;;;;5.07;100.00;101975.73;1812891;79;26625;-73
2021/01/06 04:48:49;;;;;;;3.30;2.03;;;;;;;5.04;100.00;101974.27;1813536;79;26305;-73
2021/01/06 04:51:39;;;;;;;4.43;2.27;;;;;;;5.04;100.00;101977.56;1814168;79;26249;-73
2021/01/06 04:54:44;;;;;;;4.30;2.30;;;;;;;5.02;100.00;101968.13;1815127;79;26220;-73
2021/01/06 04:57:31;;;;;;;5.33;2.63;;;;;;;5.03;100.00;101968.98;1813966;79;26301;-73
2021/01/06 05:00:25;;;;;;;2.50;2.30;;;;;;;4.99;100.00;101967.20;1802009;79;932679;-73
2021/01/06 05:03:32;;;;;;;4.53;2.47;;;;;;;4.96;100.00;101966.81;1813773;79;26322;-74
2021/01/06 05:06:09;;;;;;;4.67;2.77;;;;;;;4.99;100.00;101967.20;1807980;79;26227;-74
2021/01/06 05:08:42;;;;;;;4.10;2.73;;;;;;;4.97;100.00;101967.09;1805546;79;26679;-73
2021/01/06 05:11:15;;;;;;;5.13;3.00;;;;;;;4.91;100.00;101961.96;1806183;79;26663;-74
2021/01/06 05:13:49;;;;;;;7.37;3.17;;;;;;;4.90;100.00;101969.91;1805935;79;26653;-74
2021/01/06 05:16:22;;;;;;;4.23;3.03;;;;;;;4.92;100.00;101971.07;1806155;79;26392;-73
2021/01/06 05:18:52;;;;;;;5.77;3.60;;;;;;;4.99;100.00;101967.20;1806214;79;26654;-73
2021/01/06 05:21:23;;;;;;;5.47;3.37;;;;;;;4.99;100.00;101964.98;1806145;79;26323;-73
2021/01/06 05:23:57;;;;;;;7.20;3.83;;;;;;;5.00;100.00;101973.56;1806122;78;26791;-74
2021/01/06 05:26:26;;;;;;;5.87;3.33;;;;;;;4.88;100.00;101971.17;1805962;78;26231;-73
2021/01/06 05:28:56;;;;;;;7.47;3.77;;;;;;;4.84;100.00;101968.55;1806206;79;26286;-73
2021/01/06 05:31:26;;;;;;;6.43;3.73;;;;;;;4.90;100.00;101971.81;1806231;79;26733;-73
2021/01/06 05:33:56;;;;;;;9.90;3.93;;;;;;;4.96;100.00;101972.31;1806212;79;26220;-73
2021/01/06 05:36:29;;;;;;;6.90;3.93;;;;;;;4.96;100.00;101964.88;1806194;79;26306;-74
2021/01/06 05:39:01;;;;;;;6.30;4.17;;;;;;;4.90;100.00;101979.54;1806056;79;26306;-74
2021/01/06 05:41:31;;;;;;;5.23;3.83;;;;;;;4.93;100.00;101976.34;1806073;79;26661;-73
2021/01/06 05:44:01;;;;;;;8.07;4.40;;;;;;;4.98;100.00;101977.05;1806170;79;26241;-73
2021/01/06 05:46:33;;;;;;;5.87;4.07;;;;;;;4.93;100.00;101983.75;1806185;79;26306;-73
2021/01/06 05:49:06;;;;;;;6.87;4.80;;;;;;;4.79;100.00;101980.77;1806035;79;26231;-74
2021/01/06 05:51:38;;;;;;;10.53;5.27;;;;;;;4.87;100.00;101985.49;1805656;79;26220;-74
2021/01/06 05:54:16;;;;;;;12.33;5.30;;;;;;;4.91;100.00;101985.89;1806136;79;26671;-73
2021/01/06 05:56:58;;;;;;;9.50;6.27;;;;;;;5.00;100.00;101981.82;1805904;79;26734;-73
2021/01/06 06:00:05;;;;;;;7.53;5.30;;;;;;;5.02;100.00;101990.16;1806004;79;26631;-73
2021/01/06 06:02:40;;;;;;;6.20;5.00;;;;;;;5.00;100.00;101996.44;1797918;79;26223;-73
2021/01/06 06:05:22;;;;;;;7.83;4.47;;;;;;;4.97;100.00;101990.50;1806033;79;26226;-75
2021/01/06 06:08:30;;;;;;;5.93;4.03;;;;;;;5.00;100.00;101982.67;1805280;79;26640;-73
2021/01/06 06:11:18;;;;;;;5.40;3.50;;;;;;;4.98;100.00;101990.82;1802679;79;26679;-73
2021/01/06 06:14:07;;;;;;;5.67;3.90;;;;;;;4.97;100.00;101994.10;1804710;79;26287;-74
2021/01/06 06:16:48;;;;;;;6.43;3.50;;;;;;;5.01;100.00;101993.97;1805758;79;26290;-74
2021/01/06 06:19:34;;;;;;;5.57;3.77;;;;;;;4.98;100.00;101995.80;1805971;79;26234;-74
2021/01/06 06:22:17;;;;;;;6.00;3.60;;;;;;;4.96;100.00;101997.91;1806173;79;26220;-73
2021/01/06 06:24:54;;;;;;;5.83;3.97;;;;;;;5.01;100.00;101994.50;1806133;78;26784;-73
2021/01/06 06:27:49;;;;;;;7.93;4.00;;;;;;;4.99;100.00;101996.12;1805826;78;26283;-73
2021/01/06 06:30:38;;;;;;;9.43;4.10;;;;;;;4.97;100.00;102002.36;1806183;79;26385;-73
2021/01/06 06:33:24;;;;;;;9.30;4.77;;;;;;;4.98;100.00;101996.33;1806021;79;26305;-73
2021/01/06 06:35:56;;;;;;;5.00;3.47;;;;;;;5.01;100.00;102000.85;1806114;79;26220;-73
2021/01/06 06:38:39;;;;;;;6.07;4.07;;;;;;;5.08;100.00;102003.59;1806077;79;26725;-73
2021/01/06 06:41:11;;;;;;;7.97;3.80;;;;;;;5.08;100.00;102004.11;1806133;79;26391;-74
2021/01/06 06:43:47;;;;;;;6.20;3.50;;;;;;;5.08;100.00;102002.73;1806153;79;26232;-73
2021/01/06 06:46:29;;;;;;;8.53;3.57;;;;;;;5.06;100.00;102009.83;1806169;79;26220;-73
2021/01/06 06:49:15;;;;;;;4.47;3.17;;;;;;;5.12;100.00;102006.73;1806131;79;26662;-73
2021/01/06 06:51:50;;;;;;;9.13;3.80;;;;;;;4.97;100.00;102009.25;1805817;79;26721;-73
2021/01/06 06:54:25;;;;;;;4.53;3.20;;;;;;;5.00;100.00;102016.24;1806242;79;26659;-74
2021/01/06 06:56:58;;;;;;;5.07;3.77;;;;;;;5.07;100.00;102011.53;1806176;79;26420;-74
2021/01/06 06:59:32;;;;;;;4.33;3.30;;;;;;;5.05;100.00;102011.73;1806011;79;26326;-75
2021/01/06 07:02:05;;;;;;;6.03;3.63;;;;;;;5.02;100.00;102015.47;1806171;79;26243;-74
2021/01/06 07:04:40;;;;;;;4.70;3.70;;;;;;;5.06;100.00;102008.45;1806142;79;26734;-74
2021/01/06 07:07:21;;;;;;;7.57;3.80;;;;;;;5.01;100.00;102010.49;1805819;79;26248;-74
2021/01/06 07:09:52;;;;;;;7.37;3.57;;;;;;;5.01;100.00;102009.64;1805427;79;26350;-74
2021/01/06 07:12:22;;;;;;;4.73;3.40;;;;;;;5.07;100.00;102013.44;1806124;79;26271;-74
2021/01/06 07:14:54;;;;;;;7.20;4.00;;;;;;;5.05;100.00;102013.12;1806119;79;26356;-74
2021/01/06 07:17:32;;;;;;;7.33;4.13;;;;;;;5.11;100.00;102013.30;1806063;79;26696;-74
2021/01/06 07:20:07;;;;;;;5.60;3.73;;;;;;;5.04;100.00;102015.58;1806139;79;26250;-75
2021/01/06 07:22:40;;;;;;;4.77;3.70;;;;;;;5.00;100.00;102012.11;1806116;78;26236;-74
2021/01/06 07:25:24;;;;;;;6.27;3.60;;;;;;;5.01;100.00;102011.87;1806152;79;26353;-74
2021/01/06 07:27:57;;;;;;;6.57;4.10;;;;;;;5.13;100.00;102015.31;1805973;77;26232;-74
2021/01/06 07:30:36;;;;;;;5.17;3.90;;;;;;;5.12;100.00;102013.63;1805980;79;26401;-75
2021/01/06 07:33:14;;;;;;;6.20;3.57;;;;;;;5.14;100.00;102018.36;1806181;79;26219;-74
2021/01/06 07:35:45;;;;;;;4.83;3.90;;;;;;;5.20;100.00;102020.24;1803511;79;26294;-74
2021/01/06 07:38:18;;;;;;;6.57;4.17;;;;;;;5.15;100.00;102024.19;1806133;79;26233;-74
2021/01/06 07:40:51;;;;;;;5.47;4.27;;;;;;;5.08;100.00;102021.48;1806181;79;26294;-74
2021/01/06 07:43:24;;;;;;;6.47;4.43;;;;;;;5.04;100.00;102030.73;1805544;79;26341;-74
2021/01/06 07:46:18;;;;;;;6.90;4.13;;;;;;;5.03;100.00;102033.16;1806208;79;26758;-74
2021/01/06 07:49:12;;;;;;;7.53;4.30;;;;;;;5.09;100.00;102023.19;1806092;79;26298;-73
2021/01/06 07:51:52;;;;;;;5.80;4.37;;;;;;;5.10;100.00;102029.51;1806217;79;26313;-74
2021/01/06 07:54:38;;;;;;;7.27;4.87;;;;;;;5.17;100.00;102033.09;1806172;79;27080;-74
2021/01/06 07:57:14;;;;;;;6.03;4.47;;;;;;;5.19;100.00;102039.20;1806217;79;26330;-74
2021/01/06 07:59:54;;;;;;;10.43;4.50;;;;;;;5.12;100.00;102040.64;1805704;79;26793;-76
2021/01/06 08:02:27;;;;;;;7.40;4.63;;;;;;;5.14;100.00;102041.24;1806057;79;26278;-73
2021/01/06 08:05:05;;;;;;;10.13;4.70;;;;;;;5.09;100.00;102036.95;1805633;79;26733;-73
2021/01/06 08:07:35;;;;;;;6.60;4.40;;;;;;;5.16;100.00;102035.52;1806814;79;26223;-73
2021/01/06 08:10:16;;;;;;;7.43;5.10;;;;;;;5.08;100.00;102039.39;1806286;79;26216;-73
2021/01/06 08:12:46;;;;;;;9.47;5.37;;;;;;;5.19;100.00;102040.05;1806190;79;26228;-74
2021/01/06 08:15:22;;;;;;;8.10;4.17;;;;;;;5.16;100.00;102046.54;1806245;79;26224;-73
2021/01/06 08:17:57;;;;;;;6.43;4.70;;;;;;;5.12;100.00;102042.55;1806221;79;26341;-73
2021/01/06 08:20:29;;;;;;;7.60;5.03;;;;;;;5.10;100.00;102047.41;1806101;79;26236;-75
2021/01/06 08:23:03;;;;;;;10.30;5.33;;;;;;;5.13;100.00;102049.22;1806234;78;26284;-74
2021/01/06 08:25:36;;;;;;;6.60;5.17;;;;;;;5.16;100.00;102053.42;1804337;79;26357;-75
2021/01/06 08:28:17;;;;;;;8.93;5.40;;;;;;;5.14;100.00;102059.67;1806275;79;26675;-76
2021/01/06 08:30:47;;;;;;;6.67;4.90;;;;;;;5.14;100.00;102051.41;1806221;79;26341;-75
2021/01/06 08:33:21;;;;;;;6.43;5.03;;;;;;;5.18;100.00;102055.45;1806253;79;26314;-74
2021/01/06 08:35:56;;;;;;;8.53;4.90;;;;;;;5.21;100.00;102062.73;1806253;79;26239;-77
2021/01/06 08:38:27;;;;;;;7.13;4.63;;;;;;;5.25;100.00;102071.39;1806223;79;26285;-75
2021/01/06 08:40:59;;;;;;;10.47;5.30;;;;;;;5.20;100.00;102068.45;1806285;79;26228;-76
2021/01/06 08:43:33;;;;;;;7.20;5.17;;;;;;;5.20;100.00;102072.05;1803787;79;26305;-75
2021/01/06 08:46:05;;;;;;;9.17;4.80;;;;;;;5.26;100.00;102073.91;1805963;79;26236;-75
2021/01/06 08:48:38;;;;;;;7.50;4.87;;;;;;;5.26;100.00;102076.66;1806264;79;26220;-75
2021/01/06 08:51:10;;;;;;;8.13;5.67;;;;;;;5.29;100.00;102075.39;1806238;79;26212;-76
2021/01/06 08:53:43;;;;;;;7.53;5.07;;;;;;;5.31;100.00;102074.63;1806189;79;26237;-76
2021/01/06 08:56:15;;;;;;;8.13;5.20;;;;;;;5.31;100.00;102075.47;1806279;79;26659;-76
2021/01/06 08:58:48;;;;;;;8.13;4.83;;;;;;;5.28;100.00;102071.79;1804833;79;26235;-75
2021/01/06 09:01:39;;;;;;;6.13;5.20;;;;;;;5.26;100.00;102077.22;1806330;79;26303;-76
2021/01/06 09:04:13;;;;;;;8.87;5.10;;;;;;;5.33;100.00;102084.91;1806149;79;26255;-76
2021/01/06 09:06:52;;;;;;;7.90;5.20;;;;;;;5.33;100.00;102088.51;1806379;79;26647;-76
2021/01/06 09:09:38;;;;;;;8.43;4.73;;;;;;;5.27;100.00;102093.51;1806444;79;26326;-76
2021/01/06 09:12:27;;;;;;;9.87;4.77;;;;;;;5.31;100.00;102089.25;1806164;79;26906;-75
2021/01/06 09:15:00;;;;;;;7.23;4.80;;;;;;;5.32;100.00;102087.34;1806272;79;26298;-76
2021/01/06 09:17:35;;;;;;;8.20;4.90;;;;;;;5.40;100.00;102093.44;1806286;79;26314;-76
2021/01/06 09:20:10;;;;;;;5.67;4.80;;;;;;;5.39;100.00;102084.85;1806307;79;26240;-76
2021/01/06 09:22:41;;;;;;;11.83;5.17;;;;;;;5.47;100.00;102094.27;1806364;78;26231;-77
2021/01/06 09:25:16;;;;;;;8.43;5.30;;;;;;;5.44;100.00;102093.30;1806336;79;26227;-76
2021/01/06 09:27:49;;;;;;;9.40;4.90;;;;;;;5.44;100.00;102100.20;1806259;79;26231;-76
2021/01/06 09:30:24;;;;;;;9.23;5.43;;;;;;;5.47;100.00;102101.16;1806239;79;26723;-76
2021/01/06 09:32:57;;;;;;;8.33;5.23;;;;;;;5.44;100.00;102101.58;1806399;79;26738;-76
2021/01/06 09:35:30;;;;;;;8.03;5.13;;;;;;;5.47;100.00;102104.44;1806324;79;26235;-76
2021/01/06 09:38:03;;;;;;;6.80;4.50;;;;;;;5.47;100.00;102101.16;1806262;79;26232;-76
2021/01/06 09:40:36;;;;;;;8.93;5.17;;;;;;;5.49;100.00;102102.29;1806235;79;26232;-77
2021/01/06 09:43:13;;;;;;;8.40;5.03;;;;;;;5.50;100.00;102101.23;1806266;79;26318;-79
2021/01/06 09:45:44;;;;;;;8.37;5.63;;;;;;;5.54;100.00;102107.14;1805633;79;26733;-77
2021/01/06 09:48:16;;;;;;;6.30;5.40;;;;;;;5.58;100.00;102109.77;1806236;79;26655;-76
2021/01/06 09:50:49;;;;;;;8.07;5.43;;;;;;;5.53;100.00;102107.67;1806274;79;26252;-76
2021/01/06 09:53:23;;;;;;;7.93;5.43;;;;;;;5.55;100.00;102107.45;1806029;79;26294;-76
2021/01/06 09:55:55;;;;;;;7.33;5.37;;;;;;;5.58;100.00;102107.01;1806182;79;26353;-75
2021/01/06 09:58:37;;;;;;;7.73;5.20;;;;;;;5.59;100.00;102116.45;1806239;79;26232;-76
2021/01/06 10:01:15;;;;;;;6.67;4.80;;;;;;;5.56;100.00;102116.89;1806228;79;26321;-75
2021/01/06 10:03:48;;;;;;;6.47;4.97;;;;;;;5.53;100.00;102113.19;1806177;79;26663;-75
2021/01/06 10:06:44;;;;;;;7.50;4.83;;;;;;;5.57;100.00;102112.20;1806170;79;26310;-75
2021/01/06 10:09:22;;;;;;;6.83;5.13;;;;;;;5.57;100.00;102112.20;1805973;79;26322;-74
2021/01/06 10:12:22;;;;;;;10.13;5.37;;;;;;;5.63;100.00;102111.33;1806285;79;26279;-74
2021/01/06 10:15:03;;;;;;;10.73;4.77;;;;;;;5.59;100.00;102110.93;1805493;79;26282;-75
2021/01/06 10:17:36;;;;;;;6.90;4.73;;;;;;;5.57;100.00;102113.05;1805380;79;26216;-75
2021/01/06 10:20:11;;;;;;;6.47;4.40;;;;;;;5.66;100.00;102113.63;1806026;79;26233;-74
2021/01/06 10:22:46;;;;;;;5.20;4.60;;;;;;;5.65;100.00;102104.52;1806093;78;26286;-74
2021/01/06 10:25:23;;;;;;;6.97;5.07;;;;;;;5.67;100.00;102112.57;1806245;79;26232;-75
2021/01/06 10:28:03;;;;;;;9.23;4.83;;;;;;;5.70;100.00;102108.83;1806054;79;26279;-76
2021/01/06 10:30:34;;;;;;;7.23;5.10;;;;;;;5.69;100.00;102108.52;1806206;78;26275;-76
2021/01/06 10:33:16;;;;;;;6.77;4.60;;;;;;;5.77;100.00;102111.56;1806213;79;26244;-76
2021/01/06 10:35:50;;;;;;;7.57;4.50;;;;;;;5.81;100.00;102110.89;1806020;79;26302;-76
2021/01/06 10:38:26;;;;;;;6.53;4.57;;;;;;;5.84;100.00;102095.80;1803829;79;26228;-76
2021/01/06 10:40:59;;;;;;;8.00;4.73;;;;;;;5.89;100.00;102100.15;1806046;79;26719;-75
2021/01/06 10:43:42;;;;;;;5.27;4.27;;;;;;;5.94;100.00;102097.58;1803741;79;26231;-76
2021/01/06 10:46:38;;;;;;;6.90;4.20;;;;;;;6.00;100.00;102091.67;1805896;79;26298;-74
2021/01/06 10:49:13;;;;;;;5.23;3.93;;;;;;;6.00;100.00;102098.03;1805972;79;26236;-75
2021/01/06 10:51:54;;;;;;;5.10;3.63;;;;;;;5.95;100.00;102090.44;1805930;79;26267;-75
2021/01/06 10:54:27;;;;;;;7.00;4.20;;;;;;;6.11;100.00;102090.42;1804990;79;26229;-78
2021/01/06 10:56:57;;;;;;;5.37;4.23;;;;;;;6.13;100.00;102091.03;1805451;79;26227;-75
2021/01/06 10:59:28;;;;;;;8.83;4.43;;;;;;;6.16;100.00;102086.43;1805918;79;26332;-74
2021/01/06 11:02:17;;;;;;;6.03;3.90;;;;;;;6.21;100.00;102085.75;1805875;79;26251;-74
2021/01/06 11:05:01;;;;;;;4.97;3.70;;;;;;;6.17;100.00;102083.98;1805325;79;26226;-74
2021/01/06 11:07:40;;;;;;;5.60;3.60;;;;;;;6.15;100.00;102083.92;1805878;79;26231;-73
2021/01/06 11:10:25;;;;;;;6.50;3.90;;;;;;;6.19;100.00;102076.88;1805326;79;26782;-74
2021/01/06 11:13:05;;;;;;;6.17;3.80;;;;;;;6.17;100.00;102076.24;1805807;79;26306;-74
2021/01/06 11:16:05;;;;;;;5.53;3.57;;;;;;;6.31;100.00;102069.01;1805696;79;26219;-75
2021/01/06 11:18:40;;;;;;;8.03;4.20;;;;;;;6.27;100.00;102060.87;1795791;79;26231;-75
2021/01/06 11:21:19;;;;;;;5.23;3.83;;;;;;;6.40;100.00;102062.12;1806051;79;26679;-76
2021/01/06 11:23:56;;;;;;;7.70;3.90;;;;;;;6.36;100.00;102063.66;1806059;78;26431;-76
2021/01/06 11:26:57;;;;;;;7.17;4.23;;;;;;;6.36;100.00;102056.76;1806087;79;26305;-75
2021/01/06 11:29:49;;;;;;;4.83;4.17;;;;;;;6.32;100.00;102061.05;1805914;79;26277;-75
2021/01/06 11:32:27;;;;;;;6.40;3.30;;;;;;;6.25;100.00;102055.26;1805919;77;26329;-75
2021/01/06 11:35:34;;;;;;;6.60;3.23;;;;;;;6.17;100.00;102051.41;1805993;79;26328;-75
2021/01/06 11:38:08;;;;;;;4.80;3.13;;;;;;;6.17;100.00;102048.13;1806087;79;26235;-75
2021/01/06 11:40:51;;;;;;;3.60;2.33;;;;;;;6.27;100.00;102044.33;1802472;79;26395;-74
2021/01/06 11:44:12;;;;;;;4.23;2.63;;;;;;;6.32;100.00;102044.48;1806049;79;26328;-75
2021/01/06 11:46:59;;;;;;;4.70;2.80;;;;;;;6.44;100.00;102039.58;1749027;82;26333;-75
2021/01/06 11:49:32;;;;;;;4.93;2.47;;;;;;;6.64;100.00;102043.80;1748764;82;26666;-75
2021/01/06 11:52:25;;;;;;;5.33;2.20;;;;;;;6.75;100.00;102031.16;1748856;82;26263;-75
2021/01/06 11:54:58;;;;;;;3.70;2.27;;;;;;;6.63;100.00;102028.87;1748811;82;26709;-75
2021/01/06 11:57:44;;;;;;;3.37;1.87;;;;;;;6.56;100.00;102023.94;1748921;82;26275;-74
2021/01/06 12:00:44;;;;;;;2.70;1.80;;;;;;;6.64;100.00;102023.09;1748805;82;26313;-74
2021/01/06 12:03:28;;;;;;;2.63;2.03;;;;;;;6.53;100.00;102022.49;1692439;83;26675;-74
2021/01/06 12:06:11;;;;;;;3.87;1.90;;;;;;;6.56;100.00;102018.42;1718150;83;26379;-74